Time;durP1;ratioP1;P1;durP2;ratioP2;P2;SDS_P1;SDS_P2;PMS_P1;PMS_P2;Temp;Humidity;BMP_temperature;BMP_pressure;BME280_temperature;BME280_humidity;BME280_pressure;Samples;Min_cycle;Max_cycle;Signal;HPM_P1;HPM_P2
2022/06/18 00:01:34;;;;;;;7.85;3.17;;;;;;;;;;5032819;28;20033;-64
2022/06/18 00:04:02;;;;;;;5.38;2.85;;;;;;;;;;5033187;28;20030;-64
2022/06/18 00:06:29;;;;;;;5.35;2.83;;;;;;;;;;5032899;28;20437;-64
2022/06/18 00:08:55;;;;;;;6.95;3.10;;;;;;;;;;5032873;28;20030;-63
2022/06/18 00:14:06;;;;;;;7.60;2.90;;;;;;;;;;5032818;28;20036;-64
2022/06/18 00:16:32;;;;;;;5.40;3.03;;;;;;;;;;5032736;28;20033;-64
2022/06/18 00:18:58;;;;;;;8.25;2.70;;;;;;;;;;5033698;28;20097;-63
2022/06/18 00:21:25;;;;;;;4.78;3.08;;;;;;;;;;5036840;28;20116;-64
2022/06/18 00:23:52;;;;;;;8.10;3.10;;;;;;;;;;5036589;28;20079;-64
2022/06/18 00:26:18;;;;;;;9.25;2.78;;;;;;;;;;5036644;28;20057;-65
2022/06/18 00:28:44;;;;;;;9.70;2.88;;;;;;;;;;5037022;28;20048;-64
2022/06/18 00:31:10;;;;;;;6.45;2.92;;;;;;;;;;5036751;28;20389;-64
2022/06/18 00:33:39;;;;;;;4.10;3.03;;;;;;;;;;5036631;28;20496;-63
2022/06/18 00:36:07;;;;;;;7.43;3.20;;;;;;;;;;5036559;28;20021;-64
2022/06/18 00:38:36;;;;;;;5.57;2.92;;;;;;;;;;5036479;28;20030;-63
2022/06/18 00:41:02;;;;;;;7.28;2.80;;;;;;;;;;5036636;28;20087;-64
2022/06/18 00:43:35;;;;;;;4.55;3.05;;;;;;;;;;5036627;28;20056;-63
2022/06/18 00:46:14;;;;;;;5.20;3.00;;;;;;;;;;5036363;28;20474;-63
2022/06/18 00:48:50;;;;;;;6.88;3.17;;;;;;;;;;5035133;28;20025;-64
2022/06/18 00:51:21;;;;;;;12.82;3.20;;;;;;;;;;5036622;28;20060;-64
2022/06/18 00:53:49;;;;;;;10.43;3.35;;;;;;;;;;5036438;28;20551;-64
2022/06/18 00:56:24;;;;;;;4.03;2.83;;;;;;;;;;5036272;28;20465;-64
2022/06/18 00:58:54;;;;;;;3.70;3.15;;;;;;;;;;5033932;28;20470;-64
2022/06/18 01:01:23;;;;;;;7.60;2.85;;;;;;;;;;5033235;28;20730;-63
2022/06/18 01:03:50;;;;;;;8.35;3.53;;;;;;;;;;5033604;28;20174;-64
2022/06/18 01:06:16;;;;;;;9.32;3.08;;;;;;;;;;5035679;28;20078;-64
2022/06/18 01:08:42;;;;;;;8.25;3.00;;;;;;;;;;5036065;28;20112;-64
2022/06/18 01:11:19;;;;;;;7.93;2.88;;;;;;;;;;5035727;28;20021;-64
2022/06/18 01:13:45;;;;;;;4.10;2.63;;;;;;;;;;5035734;28;20029;-64
2022/06/18 01:16:12;;;;;;;8.07;2.97;;;;;;;;;;5035938;28;20025;-65
2022/06/18 01:18:39;;;;;;;7.20;2.72;;;;;;;;;;5035842;28;20057;-64
2022/06/18 01:21:08;;;;;;;9.13;2.95;;;;;;;;;;5035314;28;20028;-64
2022/06/18 01:23:42;;;;;;;4.82;2.42;;;;;;;;;;5035593;28;20116;-65
2022/06/18 01:26:09;;;;;;;5.47;2.88;;;;;;;;;;5035567;28;20022;-65
2022/06/18 01:28:35;;;;;;;7.43;3.00;;;;;;;;;;5035349;28;20025;-64
2022/06/18 01:31:01;;;;;;;12.23;3.30;;;;;;;;;;5034791;28;20466;-64
2022/06/18 01:33:27;;;;;;;4.75;2.97;;;;;;;;;;5035604;28;20025;-65
2022/06/18 01:35:54;;;;;;;11.95;3.10;;;;;;;;;;5035043;28;20037;-65
2022/06/18 01:38:24;;;;;;;4.45;2.85;;;;;;;;;;5035099;28;20029;-64
2022/06/18 01:41:49;;;;;;;9.57;3.00;;;;;;;;;;5035533;28;20013;-64
2022/06/18 01:43:47;;;;;;;6.72;3.17;;;;;;;;;;5035055;28;20030;-64
2022/06/18 01:46:13;;;;;;;7.40;3.15;;;;;;;;;;5035405;28;20022;-65
2022/06/18 01:48:41;;;;;;;7.90;3.00;;;;;;;;;;5035386;28;20029;-64
2022/06/18 01:51:11;;;;;;;6.47;2.85;;;;;;;;;;5035004;28;20493;-65
2022/06/18 01:53:43;;;;;;;6.15;2.78;;;;;;;;;;5035120;28;20426;-64
2022/06/18 01:56:20;;;;;;;5.38;2.63;;;;;;;;;;5035261;28;20033;-64
2022/06/18 01:58:58;;;;;;;8.90;2.92;;;;;;;;;;5035337;28;20486;-64
2022/06/18 02:01:25;;;;;;;4.13;2.90;;;;;;;;;;5034968;28;20017;-65
2022/06/18 02:03:52;;;;;;;4.97;2.90;;;;;;;;;;5034772;28;20500;-64
2022/06/18 02:06:18;;;;;;;4.95;2.67;;;;;;;;;;5034926;28;20370;-65
2022/06/18 02:08:45;;;;;;;4.88;2.92;;;;;;;;;;5034938;28;20045;-64
2022/06/18 02:11:12;;;;;;;6.28;3.08;;;;;;;;;;5034915;28;20099;-65
2022/06/18 02:13:41;;;;;;;7.18;2.60;;;;;;;;;;5034579;28;20030;-64
2022/06/18 02:16:09;;;;;;;6.13;3.05;;;;;;;;;;5034945;28;20025;-64
2022/06/18 02:18:36;;;;;;;6.40;3.47;;;;;;;;;;5034852;28;20491;-64
2022/06/18 02:21:05;;;;;;;9.30;3.00;;;;;;;;;;5034652;28;20474;-64
2022/06/18 02:23:31;;;;;;;8.18;3.33;;;;;;;;;;5034482;28;20036;-64
2022/06/18 02:25:57;;;;;;;6.18;2.90;;;;;;;;;;5034561;28;20029;-64
2022/06/18 02:28:24;;;;;;;6.20;2.95;;;;;;;;;;5034490;28;20418;-64
2022/06/18 02:30:52;;;;;;;7.78;3.20;;;;;;;;;;5034464;28;20025;-64
2022/06/18 02:33:33;;;;;;;4.20;2.85;;;;;;;;;;5034395;28;20022;-64
2022/06/18 02:36:00;;;;;;;5.45;3.30;;;;;;;;;;5034552;28;20036;-65
2022/06/18 02:38:26;;;;;;;6.00;2.90;;;;;;;;;;5034277;28;20044;-64
2022/06/18 02:40:52;;;;;;;4.32;2.92;;;;;;;;;;5034167;28;20393;-64
2022/06/18 02:43:20;;;;;;;6.25;3.25;;;;;;;;;;5034127;28;20389;-64
2022/06/18 02:45:48;;;;;;;9.75;3.17;;;;;;;;;;5034210;28;20033;-64
2022/06/18 02:48:14;;;;;;;11.27;3.47;;;;;;;;;;5034282;28;20029;-64
2022/06/18 02:50:41;;;;;;;6.40;3.05;;;;;;;;;;5034278;28;20040;-65
2022/06/18 02:53:09;;;;;;;6.88;3.10;;;;;;;;;;5034431;28;20393;-65
2022/06/18 02:55:37;;;;;;;10.30;3.00;;;;;;;;;;5034033;28;20473;-65
2022/06/18 02:58:05;;;;;;;7.63;2.97;;;;;;;;;;5033968;28;20548;-64
2022/06/18 03:00:36;;;;;;;5.60;3.05;;;;;;;;;;5033947;28;20115;-65
2022/06/18 03:03:02;;;;;;;4.65;2.88;;;;;;;;;;5033898;28;20033;-64
2022/06/18 03:05:29;;;;;;;4.80;3.15;;;;;;;;;;5033697;28;20473;-64
2022/06/18 03:07:55;;;;;;;5.25;2.70;;;;;;;;;;5033966;28;20033;-65
2022/06/18 03:13:06;;;;;;;10.65;4.25;;;;;;;;;;5033856;28;20040;-64
2022/06/18 03:15:32;;;;;;;3.58;3.10;;;;;;;;;;5033503;28;20425;-65
2022/06/18 03:17:59;;;;;;;9.80;3.22;;;;;;;;;;5033497;28;20393;-64
2022/06/18 03:20:29;;;;;;;4.35;2.92;;;;;;;;;;5033373;28;20032;-64
2022/06/18 03:22:55;;;;;;;8.00;2.97;;;;;;;;;;5033426;28;20029;-64
2022/06/18 03:25:21;;;;;;;8.32;3.28;;;;;;;;;;5033700;28;20029;-64
2022/06/18 03:27:47;;;;;;;5.43;2.90;;;;;;;;;;5033541;28;20029;-64
2022/06/18 03:30:13;;;;;;;5.10;3.03;;;;;;;;;;5033510;28;20100;-65
2022/06/18 03:32:39;;;;;;;5.15;3.20;;;;;;;;;;5033486;28;20030;-64
2022/06/18 03:35:06;;;;;;;9.90;3.70;;;;;;;;;;5033170;28;20028;-65
2022/06/18 03:37:32;;;;;;;7.32;3.58;;;;;;;;;;5033257;28;20091;-64
2022/06/18 03:39:58;;;;;;;8.95;3.65;;;;;;;;;;5033282;28;20064;-65
2022/06/18 03:42:24;;;;;;;6.95;3.88;;;;;;;;;;5033007;28;20427;-64
2022/06/18 03:44:50;;;;;;;10.77;3.85;;;;;;;;;;5032978;28;20078;-64
2022/06/18 03:47:17;;;;;;;12.27;4.03;;;;;;;;;;5033024;28;20393;-65
2022/06/18 03:49:43;;;;;;;9.43;3.45;;;;;;;;;;5033061;28;20025;-64
2022/06/18 03:52:09;;;;;;;11.02;5.00;;;;;;;;;;5033001;28;20053;-65
2022/06/18 03:54:36;;;;;;;6.22;3.67;;;;;;;;;;5032529;28;20053;-64
2022/06/18 03:57:02;;;;;;;10.70;3.75;;;;;;;;;;5033093;28;20130;-64
2022/06/18 03:59:28;;;;;;;8.93;3.60;;;;;;;;;;5032938;28;20072;-65
2022/06/18 04:01:54;;;;;;;8.32;3.53;;;;;;;;;;5033181;28;20033;-64
2022/06/18 04:04:20;;;;;;;7.40;3.40;;;;;;;;;;5033000;28;20097;-64
2022/06/18 04:06:46;;;;;;;9.02;3.53;;;;;;;;;;5032990;28;20056;-64
2022/06/18 04:09:12;;;;;;;7.57;3.78;;;;;;;;;;5032549;28;20044;-64
2022/06/18 04:11:38;;;;;;;5.18;3.10;;;;;;;;;;5032848;28;20049;-65
2022/06/18 04:14:04;;;;;;;5.60;3.15;;;;;;;;;;5032883;28;20478;-64
2022/06/18 04:16:31;;;;;;;5.63;3.38;;;;;;;;;;5032877;28;20029;-64
2022/06/18 04:18:57;;;;;;;6.35;3.33;;;;;;;;;;5033225;28;20076;-65
2022/06/18 04:21:23;;;;;;;6.60;3.00;;;;;;;;;;5032612;28;20022;-65
2022/06/18 04:23:49;;;;;;;6.10;3.28;;;;;;;;;;5032670;28;20068;-64
2022/06/18 04:26:15;;;;;;;7.75;3.42;;;;;;;;;;5032975;28;20021;-64
2022/06/18 04:28:41;;;;;;;6.75;3.40;;;;;;;;;;5032826;28;20029;-64
2022/06/18 04:31:07;;;;;;;4.57;3.58;;;;;;;;;;5033024;28;20037;-64
2022/06/18 04:33:34;;;;;;;6.22;3.45;;;;;;;;;;5032677;28;20373;-66
2022/06/18 04:36:00;;;;;;;9.70;3.33;;;;;;;;;;5032456;28;20112;-64
2022/06/18 04:38:27;;;;;;;8.18;3.53;;;;;;;;;;5032651;28;20033;-65
2022/06/18 04:40:53;;;;;;;7.68;3.30;;;;;;;;;;5032639;28;20362;-65
2022/06/18 04:43:21;;;;;;;5.97;3.55;;;;;;;;;;5032477;28;20392;-65
2022/06/18 04:45:47;;;;;;;7.20;3.70;;;;;;;;;;5032382;28;20453;-65
2022/06/18 04:48:13;;;;;;;6.85;3.20;;;;;;;;;;5032617;28;20036;-67
2022/06/18 04:50:40;;;;;;;7.65;3.50;;;;;;;;;;5032303;28;20040;-65
2022/06/18 04:53:07;;;;;;;8.02;3.33;;;;;;;;;;5032718;28;20087;-64
2022/06/18 04:55:33;;;;;;;8.15;3.15;;;;;;;;;;5032402;28;20485;-65
2022/06/18 04:58:00;;;;;;;5.40;3.25;;;;;;;;;;5032190;28;20029;-65
2022/06/18 05:00:26;;;;;;;10.38;3.55;;;;;;;;;;5032541;28;20036;-64
2022/06/18 05:02:52;;;;;;;6.63;3.33;;;;;;;;;;5032539;28;20021;-68
2022/06/18 05:05:21;;;;;;;10.10;3.58;;;;;;;;;;5032470;28;20032;-68
2022/06/18 05:07:47;;;;;;;4.20;3.30;;;;;;;;;;5035999;28;20468;-68
2022/06/18 05:10:13;;;;;;;14.00;4.80;;;;;;;;;;5035804;28;20489;-67
2022/06/18 05:12:39;;;;;;;10.77;4.03;;;;;;;;;;5036059;28;20021;-68
2022/06/18 05:15:06;;;;;;;56.95;9.75;;;;;;;;;;5035771;28;20021;-69
2022/06/18 05:17:33;;;;;;;13.55;4.90;;;;;;;;;;5035669;28;20087;-69
2022/06/18 05:19:59;;;;;;;16.60;5.80;;;;;;;;;;5035931;28;20382;-70
2022/06/18 05:22:27;;;;;;;9.80;3.88;;;;;;;;;;5034670;28;20064;-68
2022/06/18 05:24:53;;;;;;;5.78;3.63;;;;;;;;;;5036077;28;20052;-68
2022/06/18 05:27:27;;;;;;;5.80;3.22;;;;;;;;;;5035792;28;20030;-68
2022/06/18 05:29:54;;;;;;;8.38;3.40;;;;;;;;;;5035360;28;20132;-68
2022/06/18 05:32:20;;;;;;;6.85;3.53;;;;;;;;;;5035328;28;20033;-68
2022/06/18 05:34:46;;;;;;;5.90;3.08;;;;;;;;;;5035647;28;20079;-69
2022/06/18 05:37:13;;;;;;;6.97;3.22;;;;;;;;;;5034577;28;20367;-69
2022/06/18 05:39:40;;;;;;;7.95;3.63;;;;;;;;;;5035475;28;20022;-69
2022/06/18 05:42:06;;;;;;;3.75;3.40;;;;;;;;;;5035481;28;20022;-69
2022/06/18 05:44:32;;;;;;;8.40;3.05;;;;;;;;;;5035320;28;20025;-68
2022/06/18 05:46:58;;;;;;;6.72;3.35;;;;;;;;;;5035350;28;20025;-69
2022/06/18 05:49:24;;;;;;;4.97;2.75;;;;;;;;;;5035576;28;20021;-68
2022/06/18 05:51:50;;;;;;;6.38;2.97;;;;;;;;;;5035098;28;20053;-68
2022/06/18 05:54:17;;;;;;;4.18;2.83;;;;;;;;;;5035393;28;20109;-69
2022/06/18 05:56:43;;;;;;;4.88;2.70;;;;;;;;;;5035299;28;20029;-69
2022/06/18 05:59:12;;;;;;;7.38;2.80;;;;;;;;;;5034947;28;20376;-68
2022/06/18 06:01:38;;;;;;;6.60;2.70;;;;;;;;;;5034872;28;20100;-68
2022/06/18 06:04:04;;;;;;;6.07;2.65;;;;;;;;;;5034966;28;20032;-68
2022/06/18 06:06:30;;;;;;;5.20;3.00;;;;;;;;;;5035098;28;20463;-68
2022/06/18 06:08:56;;;;;;;4.75;2.72;;;;;;;;;;5035018;28;20032;-67
2022/06/18 06:11:28;;;;;;;5.97;2.50;;;;;;;;;;5035148;28;20029;-67
2022/06/18 06:13:54;;;;;;;4.10;2.50;;;;;;;;;;5034902;28;20025;-67
2022/06/18 06:16:20;;;;;;;6.35;2.60;;;;;;;;;;5032585;28;20029;-67
2022/06/18 06:18:47;;;;;;;3.95;2.40;;;;;;;;;;5034241;28;20029;-67
2022/06/18 06:21:13;;;;;;;4.32;2.50;;;;;;;;;;5034667;28;20025;-67
2022/06/18 06:23:39;;;;;;;8.07;2.75;;;;;;;;;;5019567;28;20022;-67
2022/06/18 06:26:21;;;;;;;3.90;2.50;;;;;;;;;;5014599;28;20022;-68
2022/06/18 06:28:47;;;;;;;8.70;2.50;;;;;;;;;;5014149;28;20482;-67
2022/06/18 06:31:13;;;;;;;3.15;2.20;;;;;;;;;;5014347;28;20378;-67
2022/06/18 06:33:39;;;;;;;7.35;2.30;;;;;;;;;;4997131;28;20434;-67
2022/06/18 06:36:05;;;;;;;4.30;2.33;;;;;;;;;;4994709;28;20034;-67
2022/06/18 06:38:32;;;;;;;5.97;2.33;;;;;;;;;;4994462;28;20161;-67
2022/06/18 06:40:59;;;;;;;9.02;2.60;;;;;;;;;;4994800;28;20026;-67
2022/06/18 06:43:25;;;;;;;4.88;2.60;;;;;;;;;;4997489;28;20109;-67
2022/06/18 06:45:51;;;;;;;5.20;2.65;;;;;;;;;;5002685;28;20101;-68
2022/06/18 06:48:18;;;;;;;8.98;2.63;;;;;;;;;;5008856;28;20025;-68
2022/06/18 06:50:46;;;;;;;9.05;2.80;;;;;;;;;;4995483;28;20022;-66
2022/06/18 06:53:12;;;;;;;5.40;2.60;;;;;;;;;;5001285;28;20513;-67
2022/06/18 06:58:23;;;;;;;8.07;3.03;;;;;;;;;;4998481;28;20053;-67
2022/06/18 07:00:51;;;;;;;7.70;2.70;;;;;;;;;;5002449;28;20032;-67
2022/06/18 07:03:19;;;;;;;9.27;2.90;;;;;;;;;;5000869;28;20045;-67
2022/06/18 07:05:45;;;;;;;6.88;3.13;;;;;;;;;;5000889;28;20026;-66
2022/06/18 07:08:12;;;;;;;4.18;2.78;;;;;;;;;;5013287;28;20112;-66
2022/06/18 07:10:38;;;;;;;12.90;3.78;;;;;;;;;;4996566;28;20479;-69
2022/06/18 07:13:05;;;;;;;6.85;2.70;;;;;;;;;;4993798;28;20030;-67
2022/06/18 07:15:31;;;;;;;8.85;3.00;;;;;;;;;;5012757;28;20030;-67
2022/06/18 07:17:58;;;;;;;5.35;2.80;;;;;;;;;;5013671;28;20034;-67
2022/06/18 07:20:24;;;;;;;6.05;3.10;;;;;;;;;;5013401;28;20033;-67
2022/06/18 07:22:50;;;;;;;6.15;2.92;;;;;;;;;;5013630;28;20034;-67
2022/06/18 07:25:17;;;;;;;6.93;3.35;;;;;;;;;;5013402;28;20022;-67
2022/06/18 07:27:43;;;;;;;9.93;2.80;;;;;;;;;;5012964;28;20034;-67
2022/06/18 07:30:10;;;;;;;3.92;2.60;;;;;;;;;;5012619;28;20021;-67
2022/06/18 07:32:37;;;;;;;7.00;2.50;;;;;;;;;;5013354;28;20044;-66
2022/06/18 07:35:04;;;;;;;9.13;3.20;;;;;;;;;;5013208;28;20018;-67
2022/06/18 07:37:30;;;;;;;6.72;2.50;;;;;;;;;;5013220;28;20129;-67
2022/06/18 07:39:56;;;;;;;8.82;2.85;;;;;;;;;;5013427;28;20498;-67
2022/06/18 07:42:23;;;;;;;6.40;2.58;;;;;;;;;;5012729;28;20088;-68
2022/06/18 07:44:49;;;;;;;4.88;2.40;;;;;;;;;;5010023;28;20557;-68
2022/06/18 07:47:20;;;;;;;7.18;2.45;;;;;;;;;;5010480;28;20088;-67
2022/06/18 07:49:47;;;;;;;4.78;2.38;;;;;;;;;;5013107;28;20052;-68
2022/06/18 07:52:14;;;;;;;5.82;2.72;;;;;;;;;;5013366;28;20046;-68
2022/06/18 07:54:40;;;;;;;4.88;2.38;;;;;;;;;;5013546;28;20021;-68
2022/06/18 07:57:06;;;;;;;5.45;2.25;;;;;;;;;;5013277;28;20070;-68
2022/06/18 07:59:32;;;;;;;4.40;2.60;;;;;;;;;;5013192;28;20064;-68
2022/06/18 08:01:59;;;;;;;5.15;2.45;;;;;;;;;;5013364;28;20065;-68
2022/06/18 08:04:26;;;;;;;6.05;2.33;;;;;;;;;;5013129;28;20022;-68
2022/06/18 08:06:53;;;;;;;7.53;2.40;;;;;;;;;;5013280;28;20029;-68
2022/06/18 08:09:19;;;;;;;5.38;2.63;;;;;;;;;;5010281;28;20032;-69
2022/06/18 08:11:45;;;;;;;10.77;2.25;;;;;;;;;;5010562;28;20513;-68
2022/06/18 08:14:11;;;;;;;9.82;2.65;;;;;;;;;;5011315;28;20556;-68
2022/06/18 08:16:37;;;;;;;8.48;2.83;;;;;;;;;;5012704;28;20030;-68
2022/06/18 08:19:03;;;;;;;9.18;2.63;;;;;;;;;;5013007;28;20041;-68
2022/06/18 08:21:38;;;;;;;4.65;2.50;;;;;;;;;;5013165;28;20026;-69
2022/06/18 08:24:09;;;;;;;6.70;2.63;;;;;;;;;;5012818;28;20060;-68
2022/06/18 08:26:36;;;;;;;15.98;2.90;;;;;;;;;;5013033;28;20026;-76
2022/06/18 08:29:03;;;;;;;4.35;2.20;;;;;;;;;;5012896;28;20022;-71
2022/06/18 08:31:29;;;;;;;6.07;2.58;;;;;;;;;;5012853;28;20030;-70
2022/06/18 08:33:55;;;;;;;3.92;2.15;;;;;;;;;;5013239;28;20026;-70
2022/06/18 08:36:21;;;;;;;5.85;2.60;;;;;;;;;;5012881;28;20034;-69
2022/06/18 08:38:48;;;;;;;4.88;2.40;;;;;;;;;;5012123;28;20140;-70
2022/06/18 08:41:25;;;;;;;6.15;2.35;;;;;;;;;;5015872;28;20474;-71
2022/06/18 08:43:58;;;;;;;3.85;2.05;;;;;;;;;;5016871;28;20033;-70
2022/06/18 08:46:26;;;;;;;2.92;2.10;;;;;;;;;;5016467;28;20017;-70
2022/06/18 08:48:59;;;;;;;4.30;2.50;;;;;;;;;;5016634;28;20029;-70
2022/06/18 08:51:37;;;;;;;5.85;2.15;;;;;;;;;;5016307;28;20057;-71
2022/06/18 08:54:09;;;;;;;71.88;5.68;;;;;;;;;;5015487;28;20030;-71
2022/06/18 08:56:47;;;;;;;17.90;3.33;;;;;;;;;;5016489;28;20031;-72
2022/06/18 08:59:30;;;;;;;4.88;2.22;;;;;;;;;;5016280;28;20541;-72
2022/06/18 09:02:01;;;;;;;7.15;1.90;;;;;;;;;;5016402;28;20096;-71
2022/06/18 09:04:33;;;;;;;6.93;2.60;;;;;;;;;;5016459;28;20498;-71
2022/06/18 09:06:59;;;;;;;3.95;2.17;;;;;;;;;;5016313;28;20021;-71
2022/06/18 09:09:43;;;;;;;3.72;2.22;;;;;;;;;;5015954;28;20021;-72
2022/06/18 09:12:16;;;;;;;9.35;2.53;;;;;;;;;;5015023;28;20033;-71
2022/06/18 09:14:59;;;;;;;3.17;2.08;;;;;;;;;;5016172;28;20422;-71
2022/06/18 09:17:31;;;;;;;3.85;2.10;;;;;;;;;;5015816;28;20042;-72
2022/06/18 09:19:57;;;;;;;;;;;;;;;;;;5016325;28;20550;-71
2022/06/18 09:22:23;;;;;;;3.35;2.03;;;;;;;;;;5016102;28;19953;-73
2022/06/18 09:24:51;;;;;;;4.38;2.10;;;;;;;;;;5015877;28;20058;-72
2022/06/18 09:27:21;;;;;;;3.28;2.13;;;;;;;;;;5016198;28;20479;-71
2022/06/18 09:30:02;;;;;;;4.50;2.25;;;;;;;;;;5015927;28;20033;-72
2022/06/18 09:32:40;;;;;;;8.52;2.03;;;;;;;;;;5016014;28;20018;-73
2022/06/18 09:35:09;;;;;;;3.78;2.22;;;;;;;;;;5015724;28;20083;-73
2022/06/18 09:37:54;;;;;;;6.90;2.00;;;;;;;;;;5015652;28;20061;-74
2022/06/18 09:40:28;;;;;;;4.10;2.20;;;;;;;;;;5015676;28;20057;-73
2022/06/18 09:43:04;;;;;;;6.85;2.10;;;;;;;;;;5015724;28;20030;-72
2022/06/18 09:45:33;;;;;;;4.32;2.00;;;;;;;;;;5015385;28;20030;-72
2022/06/18 09:48:01;;;;;;;9.52;2.20;;;;;;;;;;5015887;28;20034;-71
2022/06/18 09:50:57;;;;;;;5.57;2.10;;;;;;;;;;5015354;28;20049;-71
2022/06/18 09:53:27;;;;;;;5.80;2.35;;;;;;;;;;5001923;28;20068;-73
2022/06/18 09:55:55;;;;;;;5.18;2.03;;;;;;;;;;5014196;28;20454;-74
2022/06/18 09:58:24;;;;;;;4.45;2.25;;;;;;;;;;5015309;28;20363;-72
2022/06/18 10:00:52;;;;;;;5.70;2.10;;;;;;;;;;5015524;28;20101;-73
2022/06/18 10:08:53;;;;;;;4.60;1.90;;;;;;;;;;5015425;28;20033;-72
2022/06/18 10:11:21;;;;;;;3.58;1.95;;;;;;;;;;5015344;28;20036;-73
2022/06/18 10:13:58;;;;;;;11.77;2.38;;;;;;;;;;5015171;28;20484;-72
2022/06/18 10:16:43;;;;;;;5.85;2.20;;;;;;;;;;5015029;28;20026;-72
2022/06/18 10:19:17;;;;;;;7.97;2.03;;;;;;;;;;5015276;28;20421;-69
2022/06/18 10:21:51;;;;;;;5.25;1.63;;;;;;;;;;5015117;28;20195;-70
2022/06/18 10:24:25;;;;;;;6.97;2.10;;;;;;;;;;5015231;28;20026;-70
2022/06/18 10:26:51;;;;;;;7.15;1.90;;;;;;;;;;5015121;28;20108;-69
2022/06/18 10:29:35;;;;;;;3.50;1.80;;;;;;;;;;5014553;28;20435;-68
2022/06/18 10:32:08;;;;;;;6.60;1.73;;;;;;;;;;5014912;28;20394;-69
2022/06/18 10:34:49;;;;;;;4.60;1.73;;;;;;;;;;5014874;28;20386;-69
2022/06/18 10:37:28;;;;;;;4.07;2.30;;;;;;;;;;5014662;28;20037;-69
2022/06/18 10:40:06;;;;;;;4.05;1.75;;;;;;;;;;5014771;28;20541;-69
2022/06/18 10:42:42;;;;;;;3.08;1.90;;;;;;;;;;5014464;28;20430;-69
2022/06/18 10:45:20;;;;;;;3.13;1.75;;;;;;;;;;5014860;28;20025;-69
2022/06/18 10:47:49;;;;;;;3.38;1.92;;;;;;;;;;5014659;28;20028;-69
2022/06/18 10:50:17;;;;;;;4.55;1.80;;;;;;;;;;5014687;28;20401;-69
2022/06/18 10:52:43;;;;;;;2.92;1.90;;;;;;;;;;5014200;28;20081;-69
2022/06/18 10:55:15;;;;;;;3.10;1.90;;;;;;;;;;5014471;28;20550;-70
2022/06/18 10:57:41;;;;;;;;;;;;;;;;;;5013493;28;20375;-70
2022/06/18 11:00:18;;;;;;;3.08;1.70;;;;;;;;;;5014616;28;19912;-70
2022/06/18 11:02:44;;;;;;;3.63;1.75;;;;;;;;;;5014117;28;20482;-70
2022/06/18 11:05:20;;;;;;;5.63;2.00;;;;;;;;;;5013261;28;20529;-70
2022/06/18 11:07:49;;;;;;;4.97;1.80;;;;;;;;;;5014235;28;20076;-70
2022/06/18 11:10:41;;;;;;;6.53;2.42;;;;;;;;;;5014197;28;20105;-69
2022/06/18 11:13:18;;;;;;;4.00;1.73;;;;;;;;;;4990859;28;20447;-69
2022/06/18 11:15:44;;;;;;;6.88;1.80;;;;;;;;;;5013933;28;20406;-70
2022/06/18 11:18:29;;;;;;;2.60;1.80;;;;;;;;;;5013983;28;20124;-70
2022/06/18 11:20:58;;;;;;;9.32;2.03;;;;;;;;;;5014009;28;20045;-69
2022/06/18 11:23:24;;;;;;;2.85;1.60;;;;;;;;;;5013784;28;20022;-70
2022/06/18 11:25:55;;;;;;;6.45;1.88;;;;;;;;;;5013994;28;20040;-68
2022/06/18 11:28:21;;;;;;;4.75;2.08;;;;;;;;;;5010667;28;20021;-68
2022/06/18 11:30:49;;;;;;;4.50;1.85;;;;;;;;;;5010945;28;20045;-67
2022/06/18 11:33:35;;;;;;;6.05;2.25;;;;;;;;;;5012162;28;20061;-68
2022/06/18 11:36:15;;;;;;;5.30;1.67;;;;;;;;;;5013534;28;20080;-67
2022/06/18 11:38:52;;;;;;;4.18;1.95;;;;;;;;;;5013531;28;20042;-67
2022/06/18 11:41:23;;;;;;;4.88;1.98;;;;;;;;;;5013334;28;20033;-67
2022/06/18 11:43:49;;;;;;;4.43;1.80;;;;;;;;;;5013803;28;20500;-67
2022/06/18 11:46:22;;;;;;;4.68;2.17;;;;;;;;;;5013660;28;20261;-68
2022/06/18 11:48:58;;;;;;;4.97;1.73;;;;;;;;;;5013036;28;20057;-67
2022/06/18 11:51:27;;;;;;;8.43;2.30;;;;;;;;;;5013206;28;20081;-68
2022/06/18 11:54:12;;;;;;;2.40;1.50;;;;;;;;;;5013353;28;20053;-68
2022/06/18 11:56:58;;;;;;;4.55;2.00;;;;;;;;;;5011991;28;20037;-67
2022/06/18 11:59:24;;;;;;;8.35;1.85;;;;;;;;;;5013354;28;20061;-68
2022/06/18 12:01:55;;;;;;;4.15;1.90;;;;;;;;;;5013444;28;20065;-68
2022/06/18 12:04:54;;;;;;;3.25;1.90;;;;;;;;;;5013196;28;20037;-68
2022/06/18 12:07:39;;;;;;;4.38;1.75;;;;;;;;;;4980382;28;20112;-68
2022/06/18 12:10:10;;;;;;;3.78;1.77;;;;;;;;;;5012141;28;20390;-68
2022/06/18 12:12:51;;;;;;;6.60;2.50;;;;;;;;;;5013062;28;20018;-68
2022/06/18 12:15:20;;;;;;;2.53;1.73;;;;;;;;;;5014780;28;20496;-68
2022/06/18 12:18:00;;;;;;;4.15;1.80;;;;;;;;;;5017168;28;20099;-67
2022/06/18 12:20:33;;;;;;;7.32;1.88;;;;;;;;;;5017058;28;20036;-68
2022/06/18 12:23:03;;;;;;;9.10;2.40;;;;;;;;;;5017190;28;20021;-68
2022/06/18 12:25:32;;;;;;;4.25;1.85;;;;;;;;;;5017091;28;20026;-68
2022/06/18 12:27:57;;;;;;;2.55;1.75;;;;;;;;;;5017048;28;20041;-68
2022/06/18 12:30:28;;;;;;;5.57;2.08;;;;;;;;;;5015667;28;20389;-68
2022/06/18 12:32:54;;;;;;;6.78;2.10;;;;;;;;;;5014254;28;20034;-68
2022/06/18 12:35:37;;;;;;;5.32;1.88;;;;;;;;;;5014250;28;20113;-68
2022/06/18 12:38:22;;;;;;;3.28;1.80;;;;;;;;;;5017018;28;20042;-68
2022/06/18 12:41:03;;;;;;;6.40;1.80;;;;;;;;;;5016969;28;20451;-68
2022/06/18 12:43:44;;;;;;;7.07;1.92;;;;;;;;;;5017118;28;20379;-70
2022/06/18 12:46:16;;;;;;;4.00;1.90;;;;;;;;;;5016798;28;20048;-68
2022/06/18 12:48:42;;;;;;;4.28;1.80;;;;;;;;;;5016737;28;20030;-68
2022/06/18 12:51:13;;;;;;;2.03;1.70;;;;;;;;;;5016588;28;20050;-68
2022/06/18 12:53:58;;;;;;;3.42;1.90;;;;;;;;;;5016735;28;20030;-68
2022/06/18 12:56:43;;;;;;;7.43;1.80;;;;;;;;;;5016848;28;20026;-68
2022/06/18 12:59:09;;;;;;;6.20;2.13;;;;;;;;;;5016479;28;20029;-68
2022/06/18 13:01:53;;;;;;;5.55;2.10;;;;;;;;;;5016345;28;20021;-68
2022/06/18 13:04:26;;;;;;;6.25;2.10;;;;;;;;;;5016202;28;20509;-67
2022/06/18 13:07:01;;;;;;;5.35;2.25;;;;;;;;;;5016242;28;20467;-68
2022/06/18 13:09:45;;;;;;;6.60;2.10;;;;;;;;;;5016397;28;20026;-68
2022/06/18 13:12:17;;;;;;;7.72;1.88;;;;;;;;;;5016410;28;20360;-68
2022/06/18 13:14:46;;;;;;;4.28;1.80;;;;;;;;;;5015939;28;20030;-68
2022/06/18 13:17:17;;;;;;;2.38;1.90;;;;;;;;;;5016303;28;20478;-68
2022/06/18 13:19:45;;;;;;;2.10;1.83;;;;;;;;;;5016292;28;20384;-68
2022/06/18 13:22:11;;;;;;;4.32;1.88;;;;;;;;;;5015821;28;20478;-68
2022/06/18 13:30:18;;;;;;;2.85;1.83;;;;;;;;;;5015998;28;20453;-70
2022/06/18 13:32:50;;;;;;;6.63;1.90;;;;;;;;;;5016032;28;20113;-69
2022/06/18 13:35:16;;;;;;;5.88;2.10;;;;;;;;;;5014004;28;20635;-68
2022/06/18 13:38:01;;;;;;;3.47;2.00;;;;;;;;;;5012743;28;20133;-68
2022/06/18 13:40:40;;;;;;;5.10;1.90;;;;;;;;;;5013386;28;20112;-68
2022/06/18 13:43:10;;;;;;;5.35;2.15;;;;;;;;;;5015181;28;20021;-69
2022/06/18 13:45:48;;;;;;;4.13;2.10;;;;;;;;;;5015530;28;20105;-68
2022/06/18 13:48:26;;;;;;;8.55;2.00;;;;;;;;;;5015650;28;20049;-67
2022/06/18 13:50:54;;;;;;;6.70;1.90;;;;;;;;;;5015468;28;20046;-68
2022/06/18 13:53:24;;;;;;;6.03;2.10;;;;;;;;;;5015480;28;20026;-68
2022/06/18 13:55:50;;;;;;;5.28;2.40;;;;;;;;;;5015515;28;20037;-68
2022/06/18 13:58:22;;;;;;;3.78;2.30;;;;;;;;;;5015082;28;20029;-69
2022/06/18 14:00:48;;;;;;;4.28;2.00;;;;;;;;;;5015043;28;20025;-69
2022/06/18 14:03:20;;;;;;;8.25;2.58;;;;;;;;;;5015240;28;20106;-68
2022/06/18 14:05:50;;;;;;;6.13;2.67;;;;;;;;;;5015062;28;20026;-68
2022/06/18 14:08:22;;;;;;;5.75;2.67;;;;;;;;;;5015344;28;20109;-69
2022/06/18 14:10:48;;;;;;;8.50;2.97;;;;;;;;;;5015027;28;20391;-69
2022/06/18 14:13:15;;;;;;;4.68;2.72;;;;;;;;;;5014618;28;20108;-68
2022/06/18 14:15:51;;;;;;;7.75;3.05;;;;;;;;;;5015025;28;20018;-69
2022/06/18 14:18:21;;;;;;;4.95;3.30;;;;;;;;;;5014813;28;20045;-69
2022/06/18 14:20:54;;;;;;;6.95;3.13;;;;;;;;;;5013436;28;20029;-68
2022/06/18 14:23:40;;;;;;;10.60;3.22;;;;;;;;;;5014783;28;20544;-69
2022/06/18 14:26:06;;;;;;;5.80;3.58;;;;;;;;;;5015072;28;20105;-69
2022/06/18 14:28:43;;;;;;;10.43;3.17;;;;;;;;;;5014699;28;20034;-69
2022/06/18 14:31:28;;;;;;;14.00;3.22;;;;;;;;;;5014631;28;20029;-69
2022/06/18 14:34:13;;;;;;;9.00;3.03;;;;;;;;;;5014866;28;20069;-69
2022/06/18 14:36:42;;;;;;;5.15;2.80;;;;;;;;;;5014720;28;20443;-69
2022/06/18 14:39:20;;;;;;;8.15;3.10;;;;;;;;;;5014418;28;20524;-68
2022/06/18 14:41:51;;;;;;;8.60;2.80;;;;;;;;;;5013818;28;20021;-68
2022/06/18 14:44:35;;;;;;;9.02;2.40;;;;;;;;;;5014405;28;20022;-69
2022/06/18 14:47:08;;;;;;;8.93;2.80;;;;;;;;;;5014575;28;20072;-68
2022/06/18 14:49:43;;;;;;;13.05;2.47;;;;;;;;;;5014077;28;20486;-67
2022/06/18 14:52:28;;;;;;;6.25;2.72;;;;;;;;;;5014120;28;20058;-68
2022/06/18 14:54:59;;;;;;;4.82;2.65;;;;;;;;;;5014150;28;20030;-68
2022/06/18 14:57:40;;;;;;;7.20;2.83;;;;;;;;;;5014092;28;20502;-68
2022/06/18 15:00:06;;;;;;;7.88;2.50;;;;;;;;;;5011574;28;20439;-68
2022/06/18 15:02:32;;;;;;;8.02;2.60;;;;;;;;;;5011551;28;20372;-68
2022/06/18 15:04:59;;;;;;;5.82;3.00;;;;;;;;;;5013974;28;20037;-69
2022/06/18 15:07:32;;;;;;;11.82;3.60;;;;;;;;;;5014117;28;20033;-68
2022/06/18 15:10:04;;;;;;;9.85;2.80;;;;;;;;;;5014266;28;20029;-69
2022/06/18 15:12:30;;;;;;;9.38;3.40;;;;;;;;;;5014170;28;20061;-69
2022/06/18 15:14:58;;;;;;;10.35;3.20;;;;;;;;;;5014151;28;20478;-68
2022/06/18 15:20:06;;;;;;;6.22;3.08;;;;;;;;;;5014509;28;20030;-69
2022/06/18 15:25:24;;;;;;;8.30;3.10;;;;;;;;;;5013924;28;19950;-68